Cashmere, Washington
Current Conditions -  °F | °C
As of 7:55 PM on Tuesday 21 Oct 2014 (Local Time) from KEAT Reporting Station
Clear Clear  
Wind Chill: 55°   Ceiling: Unl
Heat Index: 55°   Visibility: 10mi
Dew Point: 39°   Wind: 3mph
Humidity: 55%   Direction: 310°NW
Pressure: 29.9"   Gusts: NA
Location:  47.52°N, 120.47°W
Report Text: KEAT 220255Z AUTO 31003KT 10SM CLR 13/04 A2990 RMK AO2 SLP125 T01280039 50004
Loading
Personal Weather Stations






























Interactive Weather Map
Tropical Storm Tracking
New forecast layout! Learn more

10-Day Weather Forecast

Advertisements
Track Severe Weather on mobile